createdAt,value
2022-09-12T00:01:53.076Z,84.44
2022-09-12T00:05:20.624Z,84.39
2022-09-12T00:08:47.641Z,84.50
2022-09-12T00:12:14.440Z,84.29
2022-09-12T00:15:44.076Z,84.12
2022-09-12T00:19:12.542Z,84.07
2022-09-12T00:22:39.364Z,84.13
2022-09-12T00:26:07.831Z,83.99
2022-09-12T00:29:34.962Z,84.14
2022-09-12T00:33:02.308Z,84.05
2022-09-12T00:36:31.307Z,83.75
2022-09-12T00:39:57.983Z,84.10
2022-09-12T00:43:40.259Z,83.98
2022-09-12T00:47:14.232Z,83.95
2022-09-12T00:50:41.076Z,84.03
2022-09-12T00:54:13.614Z,83.95
2022-09-12T00:57:45.594Z,83.93
2022-09-12T01:01:12.348Z,84.06
2022-09-12T01:04:42.116Z,84.03
2022-09-12T01:08:08.021Z,84.30
2022-09-12T01:11:38.279Z,84.22
2022-09-12T01:15:06.359Z,84.02
2022-09-12T01:18:46.251Z,84.07
2022-09-12T01:22:34.541Z,84.19
2022-09-12T01:26:22.647Z,84.27
2022-09-12T01:30:07.356Z,84.40
2022-09-12T01:33:57.449Z,84.49
2022-09-12T01:37:34.247Z,84.60
2022-09-12T01:41:13.059Z,84.69
2022-09-12T01:44:47.474Z,84.88
2022-09-12T01:48:22.034Z,85.12
2022-09-12T01:51:58.387Z,85.03
2022-09-12T01:55:29.627Z,85.19
2022-09-12T01:59:02.423Z,85.20
2022-09-12T02:02:34.706Z,85.18
2022-09-12T02:06:08.006Z,85.14
2022-09-12T02:09:40.806Z,85.48
2022-09-12T02:13:13.632Z,85.57
2022-09-12T02:16:46.346Z,85.71
2022-09-12T02:20:43.960Z,85.65
2022-09-12T02:24:11.420Z,85.75
2022-09-12T02:27:43.130Z,85.61
2022-09-12T02:31:19.546Z,85.75
2022-09-12T02:34:51.159Z,85.76
2022-09-12T02:38:25.660Z,85.75
2022-09-12T02:41:55.774Z,85.70
2022-09-12T02:45:23.940Z,85.84
2022-09-12T02:48:50.631Z,85.85
2022-09-12T02:52:18.048Z,85.78
2022-09-12T02:55:46.488Z,85.87
2022-09-12T02:59:17.469Z,86.03
2022-09-12T03:03:07.885Z,85.87
2022-09-12T03:06:41.133Z,85.96
2022-09-12T03:10:14.649Z,86.25
2022-09-12T03:13:54.275Z,86.39
2022-09-12T03:17:31.317Z,86.46
2022-09-12T03:21:03.923Z,86.66
2022-09-12T03:24:34.238Z,86.68
2022-09-12T03:28:08.165Z,86.67
2022-09-12T03:31:35.674Z,86.94
2022-09-12T03:35:02.886Z,87.11
2022-09-12T03:38:30.135Z,87.29
2022-09-12T03:41:57.373Z,87.40
2022-09-12T03:45:24.322Z,87.38
2022-09-12T03:48:51.380Z,87.33
2022-09-12T03:52:18.610Z,87.35
2022-09-12T03:55:45.418Z,87.42
2022-09-12T03:59:12.681Z,87.39
2022-09-12T04:02:39.720Z,87.38
2022-09-12T04:06:55.592Z,87.59
2022-09-12T04:10:22.855Z,87.73
2022-09-12T04:13:51.546Z,87.91
2022-09-12T04:17:19.002Z,87.87
2022-09-12T04:20:48.218Z,87.94
2022-09-12T04:24:15.549Z,87.94
2022-09-12T04:27:42.614Z,87.76
2022-09-12T04:31:13.582Z,87.70
2022-09-12T04:34:40.626Z,87.66
2022-09-12T04:38:10.308Z,87.72
2022-09-12T04:41:39.268Z,87.78
2022-09-12T04:45:07.712Z,87.82
2022-09-12T04:48:34.760Z,87.95
2022-09-12T04:52:02.202Z,87.94
2022-09-12T04:55:28.896Z,87.92
2022-09-12T04:58:57.560Z,88.12
2022-09-12T05:02:24.718Z,88.11
2022-09-12T05:05:56.248Z,88.13
2022-09-12T05:09:27.945Z,88.11
2022-09-12T05:12:55.344Z,88.16
2022-09-12T05:16:23.596Z,88.32
2022-09-12T05:19:51.071Z,88.35
2022-09-12T05:23:17.820Z,88.39
2022-09-12T05:26:44.687Z,88.53
2022-09-12T05:30:14.719Z,88.27
2022-09-12T05:33:40.848Z,88.49
2022-09-12T05:37:07.979Z,88.57
2022-09-12T05:40:38.080Z,88.71
2022-09-12T05:44:06.907Z,88.60
2022-09-12T05:47:34.799Z,88.71
2022-09-12T05:51:06.881Z,88.69
2022-09-12T05:54:34.519Z,88.64
2022-09-12T05:58:01.991Z,88.63
2022-09-12T06:01:30.609Z,88.45
2022-09-12T06:04:57.961Z,88.30
2022-09-12T06:08:25.394Z,88.13
2022-09-12T06:11:56.034Z,88.07
2022-09-12T06:15:22.984Z,87.99
2022-09-12T06:18:52.147Z,87.88
2022-09-12T06:22:20.001Z,87.81
2022-09-12T06:25:53.077Z,87.76
2022-09-12T06:29:20.619Z,87.56
2022-09-12T06:32:48.002Z,87.43
2022-09-12T06:36:18.572Z,87.46
2022-09-12T06:39:46.968Z,87.51
2022-09-12T06:43:14.812Z,87.36
2022-09-12T06:46:41.885Z,87.28
2022-09-12T06:50:10.545Z,87.04
2022-09-12T06:53:38.428Z,86.85
2022-09-12T06:57:05.446Z,86.71
2022-09-12T07:00:32.404Z,86.54
2022-09-12T07:04:01.419Z,86.37
2022-09-12T07:07:28.461Z,86.11
2022-09-12T07:10:55.514Z,85.87
2022-09-12T07:14:22.245Z,85.23
2022-09-12T07:17:49.012Z,85.04
2022-09-12T07:21:16.318Z,85.05
2022-09-12T07:24:43.324Z,84.98
2022-09-12T07:28:10.099Z,84.61
2022-09-12T07:31:36.878Z,84.41
2022-09-12T07:35:04.778Z,84.11
2022-09-12T07:38:31.683Z,84.04
2022-09-12T07:41:58.821Z,83.90
2022-09-12T07:45:27.883Z,83.48
2022-09-12T07:48:56.302Z,82.71
2022-09-12T07:52:24.630Z,81.83
2022-09-12T07:55:57.603Z,81.69
2022-09-12T07:59:48.459Z,80.89
2022-09-12T08:03:13.152Z,80.35
2022-09-12T08:06:40.671Z,78.99
2022-09-12T08:10:09.542Z,78.60
2022-09-12T08:13:37.766Z,77.68
2022-09-12T08:17:05.610Z,77.26
2022-09-12T08:20:33.137Z,76.60
2022-09-12T08:24:02.503Z,75.83
2022-09-12T08:27:30.066Z,75.40
2022-09-12T08:31:00.984Z,75.49
2022-09-12T08:34:28.029Z,76.08
2022-09-12T08:37:58.365Z,76.66
2022-09-12T08:41:30.914Z,76.30
2022-09-12T08:45:09.813Z,76.72
2022-09-12T08:48:38.266Z,76.75
2022-09-12T08:52:08.994Z,76.09
2022-09-12T08:55:39.654Z,76.28
2022-09-12T08:59:07.069Z,74.73
2022-09-12T09:02:58.941Z,75.66
2022-09-12T09:06:39.097Z,75.54
2022-09-12T09:10:16.150Z,73.61
2022-09-12T09:14:14.738Z,70.89
2022-09-12T09:17:46.587Z,71.60
2022-09-12T09:21:26.895Z,70.94
2022-09-12T09:25:00.890Z,72.29
2022-09-12T09:28:33.103Z,73.04
2022-09-12T09:32:05.461Z,73.17
2022-09-12T09:35:45.512Z,73.21
2022-09-12T09:39:23.108Z,72.52
2022-09-12T09:43:04.369Z,71.11
2022-09-12T09:46:31.693Z,70.64
2022-09-12T09:49:59.051Z,71.09
2022-09-12T09:53:41.443Z,70.30
2022-09-12T09:57:41.231Z,68.72
2022-09-12T10:01:07.360Z,68.64
2022-09-12T10:04:41.106Z,67.01
2022-09-12T10:08:10.820Z,67.00
2022-09-12T10:11:43.678Z,67.06
2022-09-12T10:15:22.908Z,67.02
2022-09-12T10:18:51.081Z,65.00
2022-09-12T10:22:21.862Z,62.14
2022-09-12T10:25:55.028Z,63.57
2022-09-12T10:29:25.487Z,64.51
2022-09-12T10:32:54.162Z,64.60
2022-09-12T10:36:24.167Z,63.35
2022-09-12T10:39:57.166Z,63.70
2022-09-12T10:43:31.023Z,63.81
2022-09-12T10:46:59.062Z,63.75
2022-09-12T10:50:29.033Z,62.98
2022-09-12T10:54:00.142Z,63.66
2022-09-12T10:58:09.753Z,61.92
2022-09-12T11:01:44.423Z,61.59
2022-09-12T11:05:22.565Z,62.24
2022-09-12T11:09:14.291Z,61.98
2022-09-12T11:12:48.216Z,61.76
2022-09-12T11:16:24.783Z,61.58
2022-09-12T11:20:08.141Z,61.12
2022-09-12T11:24:00.700Z,58.83
2022-09-12T11:27:42.658Z,59.25
2022-09-12T11:31:32.306Z,59.65
2022-09-12T11:35:11.874Z,59.47
2022-09-12T11:42:40.578Z,59.24
2022-09-12T11:46:15.339Z,58.26
2022-09-12T11:49:50.545Z,58.07
2022-09-12T11:53:24.216Z,57.87
2022-09-12T11:56:57.148Z,57.28
2022-09-12T12:00:30.362Z,56.63
2022-09-12T12:03:57.999Z,54.91
2022-09-12T12:07:24.898Z,54.13
2022-09-12T12:10:57.159Z,54.24
2022-09-12T12:14:32.020Z,54.93
2022-09-12T12:18:07.445Z,55.35
2022-09-12T12:21:43.679Z,54.35
2022-09-12T12:25:29.847Z,54.02
2022-09-12T12:29:01.290Z,54.09
2022-09-12T12:32:29.231Z,53.71
2022-09-12T12:36:09.978Z,52.79
2022-09-12T12:40:01.329Z,52.41
2022-09-12T12:43:34.762Z,49.94
2022-09-12T12:47:19.725Z,47.95
2022-09-12T12:50:48.509Z,49.57
2022-09-12T12:54:34.883Z,49.77
2022-09-12T12:58:03.739Z,50.67
2022-09-12T13:01:41.199Z,52.13
2022-09-12T13:05:18.759Z,51.52
2022-09-12T13:09:03.233Z,50.53
2022-09-12T13:12:34.034Z,49.48
2022-09-12T13:16:01.093Z,51.01
2022-09-12T13:19:32.370Z,51.50
2022-09-12T13:23:00.517Z,51.15
2022-09-12T13:26:28.065Z,51.24
2022-09-12T13:30:09.757Z,51.90
2022-09-12T13:33:46.256Z,51.63
2022-09-12T13:37:31.212Z,51.40
2022-09-12T13:41:20.003Z,51.77
2022-09-12T13:44:52.807Z,52.38
2022-09-12T13:48:26.379Z,53.43
2022-09-12T13:52:02.853Z,54.06
2022-09-12T13:55:34.022Z,54.46
2022-09-12T13:59:12.565Z,54.84
2022-09-12T14:02:41.500Z,55.19
2022-09-12T14:06:19.137Z,55.54
2022-09-12T14:09:48.132Z,55.68
2022-09-12T14:13:19.417Z,55.99
2022-09-12T14:16:46.056Z,56.45
2022-09-12T14:20:18.575Z,56.50
2022-09-12T14:23:49.611Z,56.55
2022-09-12T14:27:18.814Z,56.87
2022-09-12T14:31:02.128Z,56.87
2022-09-12T14:34:32.463Z,57.22
2022-09-12T14:38:19.954Z,56.89
2022-09-12T14:41:47.751Z,56.67
2022-09-12T14:45:19.573Z,56.81
2022-09-12T14:48:51.795Z,55.95
2022-09-12T14:52:32.376Z,56.09
2022-09-12T14:56:10.055Z,56.47
2022-09-12T14:59:41.906Z,56.29
2022-09-12T15:03:26.780Z,55.80
2022-09-12T15:06:53.933Z,56.04
2022-09-12T15:10:25.509Z,56.42
2022-09-12T15:13:55.385Z,56.66
2022-09-12T15:17:22.625Z,56.60
2022-09-12T15:20:56.036Z,56.81
2022-09-12T15:24:23.105Z,56.51
2022-09-12T15:27:56.118Z,56.82
2022-09-12T15:31:27.053Z,56.98
2022-09-12T15:34:57.351Z,57.21
2022-09-12T15:38:26.480Z,57.44
2022-09-12T15:42:14.720Z,57.70
2022-09-12T15:45:44.846Z,58.08
2022-09-12T15:49:11.912Z,58.39
2022-09-12T15:52:47.925Z,58.79
2022-09-12T15:56:15.059Z,59.10
2022-09-12T15:59:41.903Z,59.44
2022-09-12T16:03:19.259Z,59.75
2022-09-12T16:06:49.135Z,60.09
2022-09-12T16:10:18.107Z,60.46
2022-09-12T16:14:06.101Z,60.72
2022-09-12T16:17:32.866Z,60.96
2022-09-12T16:21:00.178Z,61.29
2022-09-12T16:24:27.388Z,61.61
2022-09-12T16:27:56.581Z,61.86
2022-09-12T16:31:23.499Z,62.07
2022-09-12T16:35:12.033Z,62.48
2022-09-12T16:38:43.308Z,62.74
2022-09-12T16:42:10.438Z,63.07
2022-09-12T16:46:05.603Z,63.33
2022-09-12T16:49:52.970Z,63.62
2022-09-12T16:53:19.837Z,64.00
2022-09-12T16:56:49.565Z,64.31
2022-09-12T17:00:17.443Z,64.70
2022-09-12T17:03:45.065Z,64.94
2022-09-12T17:07:14.929Z,65.19
2022-09-12T17:11:00.145Z,65.50
2022-09-12T17:14:36.177Z,65.73
2022-09-12T17:18:03.023Z,66.10
2022-09-12T17:21:30.214Z,66.37
2022-09-12T17:25:00.025Z,66.68
2022-09-12T17:28:27.662Z,67.00
2022-09-12T17:31:56.661Z,67.27
2022-09-12T17:35:23.889Z,67.67
2022-09-12T17:38:52.721Z,68.08
2022-09-12T17:42:22.223Z,68.34
2022-09-12T17:45:57.052Z,68.52
2022-09-12T17:49:24.841Z,68.83
2022-09-12T17:52:53.941Z,69.01
2022-09-12T17:56:22.709Z,69.25
2022-09-12T17:59:52.810Z,69.46
2022-09-12T18:03:24.841Z,69.61
2022-09-12T18:06:52.395Z,69.79
2022-09-12T18:10:19.860Z,69.85
2022-09-12T18:13:47.657Z,70.09
2022-09-12T18:17:15.141Z,70.18
2022-09-12T18:20:51.212Z,70.36
2022-09-12T18:24:18.929Z,70.45
2022-09-12T18:27:46.441Z,70.52
2022-09-12T18:31:17.203Z,70.77
2022-09-12T18:34:44.381Z,71.00
2022-09-12T18:38:14.871Z,71.10
2022-09-12T18:41:42.496Z,71.23
2022-09-12T18:45:11.926Z,71.39
2022-09-12T18:48:39.502Z,71.63
2022-09-12T18:52:07.224Z,71.82
2022-09-12T18:55:34.909Z,72.00
2022-09-12T18:59:05.956Z,72.24
2022-09-12T19:02:36.955Z,72.47
2022-09-12T19:06:07.588Z,72.61
2022-09-12T19:09:38.295Z,72.80
2022-09-12T19:13:05.555Z,72.99
2022-09-12T19:16:33.108Z,73.14
2022-09-12T19:20:09.062Z,73.36
2022-09-12T19:23:37.647Z,73.42
2022-09-12T19:27:06.621Z,73.67
2022-09-12T19:30:34.081Z,73.75
2022-09-12T19:34:05.421Z,73.78
2022-09-12T19:37:34.175Z,73.95
2022-09-12T19:41:02.893Z,74.09
2022-09-12T19:44:34.573Z,74.18
2022-09-12T19:48:01.786Z,74.24
2022-09-12T19:51:31.664Z,74.26
2022-09-12T19:54:58.634Z,74.33
2022-09-12T19:58:26.023Z,74.59
2022-09-12T20:01:55.713Z,74.85
2022-09-12T20:05:22.997Z,74.96
2022-09-12T20:08:50.309Z,75.14
2022-09-12T20:12:17.446Z,75.25
2022-09-12T20:15:44.344Z,75.30
2022-09-12T20:19:11.325Z,75.36
2022-09-12T20:22:40.132Z,75.42
2022-09-12T20:26:08.824Z,75.58
2022-09-12T20:29:35.961Z,75.50
2022-09-12T20:33:03.342Z,75.70
2022-09-12T20:36:30.661Z,75.90
2022-09-12T20:39:58.833Z,76.02
2022-09-12T20:43:25.713Z,76.24
2022-09-12T20:46:56.172Z,76.24
2022-09-12T20:50:23.046Z,76.54
2022-09-12T20:53:55.882Z,76.45
2022-09-12T20:57:25.502Z,76.77
2022-09-12T21:00:52.555Z,76.94
2022-09-12T21:04:19.501Z,77.02
2022-09-12T21:07:46.411Z,76.91
2022-09-12T21:11:17.622Z,76.98
2022-09-12T21:14:44.359Z,76.90
2022-09-12T21:18:12.555Z,76.98
2022-09-12T21:21:39.408Z,76.99
2022-09-12T21:25:07.064Z,77.13
2022-09-12T21:28:34.922Z,77.18
2022-09-12T21:32:05.985Z,77.26
2022-09-12T21:35:34.974Z,77.30
2022-09-12T21:39:22.480Z,77.31
2022-09-12T21:42:50.780Z,77.40
2022-09-12T21:46:20.494Z,77.70
2022-09-12T21:49:50.536Z,77.80
2022-09-12T21:53:17.573Z,77.95
2022-09-12T21:57:00.750Z,77.83
2022-09-12T22:00:28.891Z,78.25
2022-09-12T22:04:13.157Z,78.35
2022-09-12T22:07:40.724Z,78.37
2022-09-12T22:11:09.841Z,78.38
2022-09-12T22:14:39.975Z,78.61
2022-09-12T22:18:15.630Z,78.68
2022-09-12T22:22:02.308Z,79.05
2022-09-12T22:25:32.314Z,79.17
2022-09-12T22:29:00.224Z,79.39
2022-09-12T22:32:27.144Z,79.77
2022-09-12T22:35:54.023Z,79.88
2022-09-12T22:39:21.538Z,79.82
2022-09-12T22:42:48.327Z,79.85
2022-09-12T22:46:15.156Z,79.88
2022-09-12T22:49:42.864Z,79.94
2022-09-12T22:53:09.956Z,79.94
2022-09-12T22:56:46.988Z,80.09
2022-09-12T23:00:18.117Z,80.04
2022-09-12T23:03:45.044Z,80.18
2022-09-12T23:07:15.137Z,80.32
2022-09-12T23:10:42.415Z,80.37
2022-09-12T23:14:09.349Z,80.77
2022-09-12T23:17:47.956Z,80.88
2022-09-12T23:21:20.129Z,80.94
2022-09-12T23:24:47.726Z,81.07
2022-09-12T23:28:17.726Z,81.54
2022-09-12T23:31:45.024Z,81.49
2022-09-12T23:35:13.162Z,81.58
2022-09-12T23:38:40.161Z,81.36
2022-09-12T23:42:09.949Z,81.60
2022-09-12T23:45:37.265Z,81.47
2022-09-12T23:49:07.436Z,81.76
2022-09-12T23:52:37.288Z,81.70
2022-09-12T23:56:09.591Z,81.85
2022-09-12T23:59:45.474Z,81.70
